Parkersburg, Iowa
Current Conditions -  °F | °C
As of 10:54 AM on Thursday 30 Oct 2014 (Local Time) from KALO Reporting Station
Broken Clouds Broken Clouds  
Wind Chill: 46°   Ceiling: 10000
Heat Index: 49°   Visibility: 10mi
Dew Point: 37°   Wind: 7mph
Humidity: 64%   Direction: 160°SSE
Pressure: 30.07"   Gusts: NA
Location:  42.58°N, 92.79°W
Report Text: KALO 301554Z 16006KT 10SM BKN100 09/03 A3007 RMK AO2 SLP188 T00940028
Loading
Personal Weather Stations






























Interactive Weather Map
Tropical Storm Tracking
New forecast layout! Learn more

10-Day Weather Forecast

Advertisements
Track Severe Weather on mobile